EZY2266 EGCC-EGKK
Flight info
| Callsign | EZY2266 |
|---|---|
| Flight time | N/A |
| Altitude | 19000 |
| Route | LISTO L612 HON N859 KIDLI |
| Aircraft | A20N/M-SDE2E3FGHIRWXY/LB1 |
Departure
| Time | 2026-05-07 13:12 |
|---|---|
| Airport | Manchester Airport (EGCC) |
Arrival
| Time | N/A |
|---|---|
| Airport | London Gatwick Airport (EGKK) |
| Time | Latitude | Longitude | Altitude | Speed | Heading |
|---|---|---|---|---|---|
| 2026-05-07 13:11 | 53.31064 | -2.70952 | 4973 ft | 241 kts | 123° |
| 2026-05-07 13:12 | 53.30206 | -2.68349 | 4992 ft | 271 kts | 122° |
| 2026-05-07 13:12 | 53.29278 | -2.65498 | 4991 ft | 296 kts | 121° |
| 2026-05-07 13:12 | 53.28275 | -2.62395 | 4988 ft | 313 kts | 121° |
| 2026-05-07 13:12 | 53.27219 | -2.59132 | 4995 ft | 324 kts | 121° |
| 2026-05-07 13:13 | 53.26216 | -2.56038 | 4996 ft | 332 kts | 121° |
| 2026-05-07 13:13 | 53.25107 | -2.52639 | 4994 ft | 338 kts | 121° |
| 2026-05-07 13:13 | 53.23989 | -2.49220 | 4991 ft | 342 kts | 121° |
| 2026-05-07 13:13 | 53.22833 | -2.45693 | 4995 ft | 345 kts | 121° |
| 2026-05-07 13:14 | 53.21690 | -2.42213 | 4994 ft | 346 kts | 121° |
| 2026-05-07 13:14 | 53.20613 | -2.38937 | 4995 ft | 347 kts | 121° |
| 2026-05-07 13:14 | 53.19463 | -2.35442 | 4996 ft | 348 kts | 121° |
| 2026-05-07 13:14 | 53.18302 | -2.31926 | 4992 ft | 348 kts | 121° |
| 2026-05-07 13:15 | 53.17178 | -2.28523 | 4994 ft | 342 kts | 121° |
| 2026-05-07 13:15 | 53.16033 | -2.25076 | 5160 ft | 333 kts | 121° |
| 2026-05-07 13:15 | 53.14859 | -2.21949 | 5741 ft | 314 kts | 131° |
| 2026-05-07 13:15 | 53.13319 | -2.19534 | 6359 ft | 300 kts | 147° |
| 2026-05-07 13:16 | 53.11516 | -2.17944 | 6760 ft | 295 kts | 159° |
| 2026-05-07 13:16 | 53.09646 | -2.16665 | 7018 ft | 298 kts | 159° |
| 2026-05-07 13:16 | 53.07756 | -2.15365 | 7396 ft | 296 kts | 159° |
| 2026-05-07 13:16 | 53.05979 | -2.14142 | 7681 ft | 297 kts | 160° |
| 2026-05-07 13:17 | 53.04082 | -2.12835 | 7973 ft | 299 kts | 159° |
| 2026-05-07 13:17 | 53.02179 | -2.11523 | 8264 ft | 300 kts | 159° |
| 2026-05-07 13:17 | 53.00273 | -2.10207 | 8562 ft | 301 kts | 159° |
| 2026-05-07 13:17 | 52.98357 | -2.08886 | 8821 ft | 302 kts | 159° |
| 2026-05-07 13:18 | 52.96468 | -2.07585 | 9097 ft | 303 kts | 159° |
| 2026-05-07 13:18 | 52.94538 | -2.06256 | 9367 ft | 304 kts | 159° |
| 2026-05-07 13:18 | 52.92614 | -2.04932 | 9635 ft | 305 kts | 159° |
| 2026-05-07 13:18 | 52.90682 | -2.03606 | 9875 ft | 306 kts | 159° |
| 2026-05-07 13:19 | 52.88710 | -2.02253 | 10098 ft | 307 kts | 159° |
| 2026-05-07 13:19 | 52.86745 | -2.00907 | 10277 ft | 310 kts | 159° |
| 2026-05-07 13:19 | 52.84778 | -1.99561 | 10487 ft | 311 kts | 159° |
| 2026-05-07 13:19 | 52.82796 | -1.98205 | 10686 ft | 312 kts | 159° |
| 2026-05-07 13:20 | 52.80943 | -1.96940 | 10858 ft | 313 kts | 159° |
| 2026-05-07 13:20 | 52.78936 | -1.95570 | 11061 ft | 314 kts | 159° |
| 2026-05-07 13:20 | 52.76936 | -1.94207 | 11263 ft | 315 kts | 159° |
| 2026-05-07 13:20 | 52.74961 | -1.92862 | 11435 ft | 316 kts | 159° |
| 2026-05-07 13:21 | 52.72937 | -1.91487 | 11591 ft | 317 kts | 159° |
| 2026-05-07 13:21 | 52.70911 | -1.90110 | 11759 ft | 318 kts | 158° |
| 2026-05-07 13:21 | 52.68863 | -1.88718 | 11940 ft | 318 kts | 158° |
| 2026-05-07 13:21 | 52.66872 | -1.87367 | 12099 ft | 319 kts | 158° |
| 2026-05-07 13:22 | 52.64965 | -1.86075 | 12243 ft | 320 kts | 159° |
| 2026-05-07 13:22 | 52.62985 | -1.84735 | 12575 ft | 310 kts | 159° |
| 2026-05-07 13:22 | 52.61087 | -1.83461 | 12224 ft | 286 kts | 158° |
| 2026-05-07 13:22 | 52.59294 | -1.82240 | 11324 ft | 280 kts | 158° |
| 2026-05-07 13:23 | 52.57541 | -1.81044 | 10423 ft | 275 kts | 159° |
| 2026-05-07 13:23 | 52.55784 | -1.79851 | 9467 ft | 271 kts | 159° |
| 2026-05-07 13:23 | 52.54080 | -1.78705 | 8838 ft | 256 kts | 159° |
| 2026-05-07 13:23 | 52.52451 | -1.77620 | 8539 ft | 269 kts | 159° |
| 2026-05-07 13:24 | 52.50690 | -1.76448 | 8884 ft | 275 kts | 159° |
| 2026-05-07 13:24 | 52.49528 | -1.75673 | 9175 ft | 277 kts | 159° |
| 2026-05-07 13:24 | 52.47765 | -1.74492 | 9657 ft | 278 kts | 159° |
| 2026-05-07 13:24 | 52.45971 | -1.73288 | 10095 ft | 280 kts | 159° |
| 2026-05-07 13:25 | 52.44172 | -1.72081 | 10503 ft | 281 kts | 159° |
| 2026-05-07 13:25 | 52.42358 | -1.70864 | 10903 ft | 283 kts | 159° |
| 2026-05-07 13:25 | 52.40536 | -1.69644 | 11294 ft | 285 kts | 159° |
| 2026-05-07 13:25 | 52.38743 | -1.68443 | 11664 ft | 286 kts | 159° |
| 2026-05-07 13:26 | 52.36875 | -1.67194 | 12071 ft | 286 kts | 159° |
| 2026-05-07 13:26 | 52.35017 | -1.66025 | 12461 ft | 287 kts | 162° |
| 2026-05-07 13:26 | 52.33138 | -1.65020 | 12945 ft | 280 kts | 163° |